Time;durP1;ratioP1;P1;durP2;ratioP2;P2;SDS_P1;SDS_P2;PMS_P1;PMS_P2;Temp;Humidity;BMP_temperature;BMP_pressure;BME280_temperature;BME280_humidity;BME280_pressure;Samples;Min_cycle;Max_cycle;Signal;HPM_P1;HPM_P2
2023/01/15 00:01:36;;;;;;;2.17;0.60;;;18.40;68.50;;;;;;4527746;31;20085;-68
2023/01/15 00:04:05;;;;;;;1.85;0.68;;;18.30;68.50;;;;;;4527623;31;20136;-67
2023/01/15 00:06:34;;;;;;;2.05;0.60;;;18.30;68.50;;;;;;4528896;31;20197;-68
2023/01/15 00:09:00;;;;;;;1.35;0.50;;;18.30;68.50;;;;;;4529016;31;20124;-68
2023/01/15 00:11:26;;;;;;;1.48;0.50;;;18.30;68.50;;;;;;4529984;31;20158;-67
2023/01/15 00:13:52;;;;;;;1.60;0.47;;;18.30;68.50;;;;;;4528459;31;20282;-69
2023/01/15 00:16:23;;;;;;;2.90;0.88;;;18.30;68.50;;;;;;4528858;31;20130;-66
2023/01/15 00:18:54;;;;;;;2.83;0.75;;;18.20;68.50;;;;;;4528523;31;20430;-67
2023/01/15 00:21:22;;;;;;;1.33;0.68;;;18.20;68.50;;;;;;4526428;31;20108;-66
2023/01/15 00:29:19;;;;;;;1.45;0.60;;;18.20;68.50;;;;;;4529560;31;20139;-66
2023/01/15 00:32:12;;;;;;;2.65;0.75;;;18.20;68.60;;;;;;4529212;31;20152;-66
2023/01/15 00:34:38;;;;;;;1.83;0.50;;;18.20;68.50;;;;;;4513029;31;20136;-66
2023/01/15 00:37:04;;;;;;;2.60;0.50;;;18.20;68.60;;;;;;4529305;31;20592;-66
2023/01/15 00:39:30;;;;;;;2.22;0.77;;;18.20;68.60;;;;;;4527780;31;20621;-66
2023/01/15 00:41:56;;;;;;;1.73;0.63;;;18.20;68.60;;;;;;4528067;31;20677;-66
2023/01/15 00:44:22;;;;;;;1.85;0.70;;;18.10;68.60;;;;;;4529040;31;20084;-66
2023/01/15 00:46:48;;;;;;;1.27;0.60;;;18.10;68.60;;;;;;4528283;31;20154;-66
2023/01/15 00:49:14;;;;;;;2.60;0.68;;;18.10;68.60;;;;;;4530395;31;20147;-67
2023/01/15 00:51:40;;;;;;;1.52;0.47;;;18.10;68.60;;;;;;4526785;31;20132;-67
2023/01/15 00:54:08;;;;;;;2.20;0.50;;;18.10;68.60;;;;;;4529127;31;20265;-67
2023/01/15 00:56:35;;;;;;;2.58;0.65;;;18.10;68.60;;;;;;4528561;31;20181;-66
2023/01/15 00:59:03;;;;;;;2.00;0.75;;;18.10;68.60;;;;;;4527584;31;20337;-66
2023/01/15 01:01:29;;;;;;;1.65;0.50;;;18.10;68.60;;;;;;4530506;31;20097;-66
2023/01/15 01:03:55;;;;;;;1.73;0.50;;;18.00;68.60;;;;;;4527671;31;20318;-66
2023/01/15 01:06:21;;;;;;;1.42;0.47;;;18.10;68.70;;;;;;4528179;31;20209;-67
2023/01/15 01:08:47;;;;;;;1.48;0.40;;;18.00;68.60;;;;;;4513650;31;20135;-66
2023/01/15 01:11:19;;;;;;;2.45;0.73;;;18.00;68.70;;;;;;4528579;31;20157;-66
2023/01/15 01:13:50;;;;;;;2.28;0.63;;;18.00;68.60;;;;;;4514135;31;20158;-67
2023/01/15 01:16:24;;;;;;;2.63;0.68;;;18.00;68.60;;;;;;4528320;31;20135;-66
2023/01/15 01:19:02;;;;;;;1.37;0.70;;;18.00;68.60;;;;;;4515250;31;20132;-67
2023/01/15 01:21:28;;;;;;;2.15;0.70;;;18.00;68.70;;;;;;4524768;31;20634;-66
2023/01/15 01:23:57;;;;;;;2.60;0.90;;;18.00;68.60;;;;;;4513607;31;20144;-67
2023/01/15 01:26:23;;;;;;;3.17;1.00;;;18.00;68.60;;;;;;4526673;31;20136;-67
2023/01/15 01:28:50;;;;;;;1.52;0.50;;;18.00;68.60;;;;;;4515541;31;20154;-68
2023/01/15 01:31:26;;;;;;;2.08;0.68;;;18.00;68.60;;;;;;4528987;31;20142;-67
2023/01/15 01:33:54;;;;;;;1.38;0.38;;;17.90;68.50;;;;;;4515118;31;20140;-66
2023/01/15 01:36:26;;;;;;;1.67;0.57;;;17.90;68.50;;;;;;4530403;31;20274;-66
2023/01/15 01:38:52;;;;;;;2.17;0.60;;;17.90;68.50;;;;;;4501614;31;20147;-66
2023/01/15 01:41:27;;;;;;;1.92;0.77;;;17.90;68.50;;;;;;4514060;31;20132;-66
2023/01/15 01:43:55;;;;;;;1.98;0.50;;;17.90;68.50;;;;;;4527843;31;20143;-66
2023/01/15 01:46:21;;;;;;;2.40;0.60;;;17.90;68.40;;;;;;4516034;31;20124;-66
2023/01/15 01:48:50;;;;;;;1.50;0.35;;;17.90;68.50;;;;;;4529975;31;20316;-67
2023/01/15 01:51:19;;;;;;;1.58;0.60;;;17.90;68.40;;;;;;4528947;31;20135;-67
2023/01/15 01:53:46;;;;;;;2.83;0.45;;;17.90;68.40;;;;;;4530066;31;20179;-66
2023/01/15 01:56:16;;;;;;;1.73;0.40;;;17.90;68.40;;;;;;4528604;31;20143;-66
2023/01/15 01:58:52;;;;;;;2.47;0.57;;;17.80;68.30;;;;;;4515929;31;20116;-66
2023/01/15 02:01:19;;;;;;;2.00;0.68;;;17.80;68.30;;;;;;4529712;31;20112;-67
2023/01/15 02:03:47;;;;;;;2.00;0.80;;;17.80;68.30;;;;;;4529044;31;20150;-66
2023/01/15 02:06:14;;;;;;;2.40;0.70;;;17.80;68.40;;;;;;4502036;31;20140;-66
2023/01/15 02:08:41;;;;;;;2.40;0.77;;;17.80;68.30;;;;;;4528815;31;20128;-66
2023/01/15 02:11:14;;;;;;;1.83;0.57;;;17.80;68.30;;;;;;4530191;31;20143;-66
2023/01/15 02:13:49;;;;;;;2.33;0.65;;;17.80;68.40;;;;;;4528883;31;20120;-66
2023/01/15 02:16:31;;;;;;;2.30;0.63;;;17.80;68.40;;;;;;4529825;31;20152;-66
2023/01/15 02:19:21;;;;;;;2.15;0.68;;;17.80;68.30;;;;;;4530027;31;20084;-67
2023/01/15 02:21:55;;;;;;;1.70;0.70;;;17.80;68.20;;;;;;4528305;31;20147;-66
2023/01/15 02:24:47;;;;;;;2.25;0.68;;;17.70;68.30;;;;;;4530285;31;20124;-66
2023/01/15 02:27:22;;;;;;;3.70;0.80;;;17.70;68.20;;;;;;4529999;31;20099;-66
2023/01/15 02:30:07;;;;;;;3.03;0.90;;;17.70;68.20;;;;;;4528570;31;20120;-66
2023/01/15 02:32:54;;;;;;;1.98;0.50;;;17.70;68.20;;;;;;4515668;31;20183;-66
2023/01/15 02:35:49;;;;;;;2.63;0.68;;;17.70;68.20;;;;;;4528647;31;20136;-66
2023/01/15 02:38:20;;;;;;;1.45;0.50;;;17.70;68.20;;;;;;4525363;31;20197;-66
2023/01/15 02:40:50;;;;;;;2.20;0.60;;;17.70;68.20;;;;;;4515663;31;20171;-66
2023/01/15 02:43:18;;;;;;;2.58;0.63;;;17.70;68.30;;;;;;4528382;31;20203;-66
2023/01/15 02:45:48;;;;;;;2.05;0.70;;;17.70;68.30;;;;;;4515352;31;20194;-66
2023/01/15 02:48:16;;;;;;;1.73;0.60;;;17.70;68.20;;;;;;4514628;31;20132;-66
2023/01/15 02:50:54;;;;;;;2.67;0.80;;;17.70;68.10;;;;;;4529010;31;20131;-67
2023/01/15 02:53:25;;;;;;;1.70;0.60;;;17.70;68.20;;;;;;4529898;31;20144;-66
2023/01/15 02:55:54;;;;;;;2.40;0.45;;;17.60;68.10;;;;;;4513934;31;20293;-66
2023/01/15 02:58:31;;;;;;;2.60;0.70;;;17.60;68.10;;;;;;4529988;31;20139;-66
2023/01/15 03:01:01;;;;;;;4.15;0.98;;;17.60;68.10;;;;;;4528424;31;20152;-66
2023/01/15 03:03:38;;;;;;;1.77;0.80;;;17.60;68.10;;;;;;4529204;31;20159;-66
2023/01/15 03:06:16;;;;;;;2.97;0.70;;;17.60;68.00;;;;;;4529588;31;20572;-66
2023/01/15 03:08:42;;;;;;;2.63;0.90;;;17.60;68.10;;;;;;4520967;31;20695;-67
2023/01/15 03:11:11;;;;;;;2.60;0.80;;;17.60;68.00;;;;;;4511451;31;20558;-66
2023/01/15 03:14:01;;;;;;;3.13;0.77;;;17.60;68.00;;;;;;4528140;31;20144;-66
2023/01/15 03:16:37;;;;;;;1.80;0.50;;;17.60;68.00;;;;;;4514507;31;20156;-66
2023/01/15 03:19:12;;;;;;;2.40;0.65;;;17.60;68.00;;;;;;4529767;31;20158;-67
2023/01/15 03:22:04;;;;;;;3.22;0.90;;;17.60;68.00;;;;;;4527746;31;20128;-66
2023/01/15 03:24:56;;;;;;;2.13;0.70;;;17.60;67.90;;;;;;4529605;31;20132;-66
2023/01/15 03:27:22;;;;;;;2.13;0.77;;;17.60;68.00;;;;;;4529513;31;20084;-66
2023/01/15 03:29:53;;;;;;;2.10;0.60;;;17.50;67.90;;;;;;4529094;31;20131;-66
2023/01/15 03:32:21;;;;;;;2.90;0.63;;;17.50;67.90;;;;;;4518486;31;20140;-66
2023/01/15 03:34:53;;;;;;;2.63;0.70;;;17.50;67.90;;;;;;4500998;31;20150;-67
2023/01/15 03:37:22;;;;;;;2.17;0.60;;;17.50;67.80;;;;;;4521923;31;20627;-67
2023/01/15 03:39:48;;;;;;;1.90;0.45;;;17.50;67.90;;;;;;4531924;31;20126;-66
2023/01/15 03:42:23;;;;;;;2.78;1.00;;;17.50;67.90;;;;;;4517256;31;20139;-67
2023/01/15 03:45:01;;;;;;;2.30;0.55;;;17.50;67.90;;;;;;4532525;31;20108;-66
2023/01/15 03:47:39;;;;;;;2.40;0.77;;;17.50;67.80;;;;;;4519683;31;20135;-67
2023/01/15 03:50:31;;;;;;;2.35;0.70;;;17.50;67.80;;;;;;4532611;31;20136;-66
2023/01/15 03:53:16;;;;;;;1.55;0.70;;;17.50;67.80;;;;;;4523784;31;20077;-66
2023/01/15 03:55:53;;;;;;;2.40;0.95;;;17.50;67.90;;;;;;4515407;31;20389;-66
2023/01/15 03:58:19;;;;;;;1.95;0.52;;;17.50;67.90;;;;;;4531040;31;20148;-66
2023/01/15 04:01:00;;;;;;;2.30;0.60;;;17.50;67.90;;;;;;4516567;31;20154;-66
2023/01/15 04:03:31;;;;;;;2.35;0.68;;;17.40;67.80;;;;;;4531654;31;20132;-67
2023/01/15 04:06:00;;;;;;;1.90;0.80;;;17.40;67.90;;;;;;4531025;31;20084;-67
2023/01/15 04:08:31;;;;;;;2.67;0.80;;;17.40;67.90;;;;;;4516443;31;20143;-66
2023/01/15 04:10:59;;;;;;;3.25;0.80;;;17.40;67.90;;;;;;4532072;31;20127;-66
2023/01/15 04:13:25;;;;;;;2.72;0.65;;;17.40;67.90;;;;;;4530327;31;20171;-66
2023/01/15 04:15:53;;;;;;;2.95;0.75;;;17.40;67.90;;;;;;4530812;31;20248;-67
2023/01/15 04:18:19;;;;;;;2.92;0.70;;;17.40;67.90;;;;;;4531253;31;20267;-66
2023/01/15 04:20:46;;;;;;;2.85;1.00;;;17.40;67.90;;;;;;4531066;31;20132;-66
2023/01/15 04:23:12;;;;;;;2.88;0.82;;;17.40;67.90;;;;;;4517421;31;20144;-66
2023/01/15 04:25:39;;;;;;;2.55;0.60;;;17.30;67.80;;;;;;4516030;31;20189;-67
2023/01/15 04:28:06;;;;;;;1.70;0.68;;;17.40;67.90;;;;;;4531892;31;20297;-67
2023/01/15 04:30:33;;;;;;;2.47;0.60;;;17.40;67.90;;;;;;4530316;31;20151;-67
2023/01/15 04:32:59;;;;;;;2.10;0.50;;;17.30;67.80;;;;;;4517313;31;20128;-66
2023/01/15 04:35:25;;;;;;;1.42;0.50;;;17.30;67.90;;;;;;4529635;31;20120;-66
2023/01/15 04:37:58;;;;;;;1.30;0.50;;;17.30;67.80;;;;;;4530973;31;20716;-66
2023/01/15 04:45:57;;;;;;;1.83;0.80;;;17.30;67.70;;;;;;4531516;31;20164;-66
2023/01/15 04:48:23;;;;;;;1.65;0.75;;;17.30;67.60;;;;;;4529886;31;20197;-66
2023/01/15 04:50:49;;;;;;;1.98;0.63;;;17.40;67.60;;;;;;4516050;31;20132;-67
2023/01/15 04:53:15;;;;;;;2.08;0.77;;;17.40;67.50;;;;;;4530569;31;20600;-67
2023/01/15 04:55:41;;;;;;;1.75;0.65;;;17.40;67.30;;;;;;4529810;31;20128;-67
2023/01/15 04:58:07;;;;;;;1.77;0.75;;;17.40;67.20;;;;;;4530428;31;20100;-67
2023/01/15 05:00:33;;;;;;;2.00;0.80;;;17.40;67.20;;;;;;4515296;31;20132;-66
2023/01/15 05:03:01;;;;;;;2.15;0.70;;;17.50;67.10;;;;;;4530214;31;20140;-67
2023/01/15 05:05:27;;;;;;;3.97;0.77;;;17.50;67.10;;;;;;4530542;31;20140;-66
2023/01/15 05:07:53;;;;;;;2.28;0.80;;;17.50;66.90;;;;;;4515823;31;20139;-66
2023/01/15 05:10:19;;;;;;;1.45;0.63;;;17.50;66.90;;;;;;4517002;31;20607;-66
2023/01/15 05:12:52;;;;;;;2.72;0.77;;;17.50;66.80;;;;;;4529480;31;20132;-67
2023/01/15 05:15:18;;;;;;;1.77;0.65;;;17.50;66.70;;;;;;4516340;31;20131;-66
2023/01/15 05:17:44;;;;;;;1.92;0.70;;;17.60;66.70;;;;;;4529576;31;20139;-66
2023/01/15 05:20:11;;;;;;;3.28;0.65;;;17.60;66.70;;;;;;4529733;31;20144;-66
2023/01/15 05:22:37;;;;;;;2.33;0.65;;;17.60;66.60;;;;;;4515995;31;20132;-66
2023/01/15 05:25:03;;;;;;;2.08;0.68;;;17.60;66.50;;;;;;4515757;31;20135;-66
2023/01/15 05:27:30;;;;;;;2.08;0.65;;;17.60;66.40;;;;;;4531044;31;20623;-66
2023/01/15 05:29:56;;;;;;;2.50;0.77;;;17.60;66.40;;;;;;4527955;31;20146;-66
2023/01/15 05:32:21;;;;;;;4.53;0.70;;;17.60;66.40;;;;;;4530974;31;20224;-66
2023/01/15 05:35:08;;;;;;;1.88;0.68;;;17.60;66.40;;;;;;4517620;31;20116;-66
2023/01/15 05:37:53;;;;;;;2.13;0.80;;;17.60;66.40;;;;;;4506770;31;20148;-67
2023/01/15 05:40:36;;;;;;;2.20;0.80;;;17.60;66.30;;;;;;4530001;31;20136;-66
2023/01/15 05:43:02;;;;;;;2.28;0.93;;;17.60;66.40;;;;;;4514629;31;20778;-67
2023/01/15 05:45:28;;;;;;;1.98;0.60;;;17.60;66.40;;;;;;4529411;31;20257;-66
2023/01/15 05:47:54;;;;;;;2.83;0.75;;;17.60;66.40;;;;;;4529393;31;20130;-67
2023/01/15 05:50:20;;;;;;;2.00;0.60;;;17.60;66.40;;;;;;4530215;31;20179;-66
2023/01/15 05:52:46;;;;;;;2.63;0.98;;;17.60;66.40;;;;;;4529921;31;20089;-66
2023/01/15 05:55:11;;;;;;;2.30;0.50;;;17.60;66.30;;;;;;4514700;31;20166;-66
2023/01/15 05:57:38;;;;;;;1.40;0.35;;;17.60;66.30;;;;;;4516330;31;20291;-66
2023/01/15 06:00:07;;;;;;;1.40;0.60;;;17.60;66.30;;;;;;4514768;31;20341;-67
2023/01/15 06:02:33;;;;;;;2.35;0.70;;;17.60;66.30;;;;;;4516180;31;20143;-66
2023/01/15 06:05:00;;;;;;;1.92;0.68;;;17.60;66.30;;;;;;4527980;31;20152;-66
2023/01/15 06:07:25;;;;;;;3.20;0.90;;;17.60;66.30;;;;;;4529652;31;20092;-67
2023/01/15 06:09:51;;;;;;;1.50;0.70;;;17.60;66.20;;;;;;4530071;31;20118;-67
2023/01/15 06:12:21;;;;;;;2.10;0.60;;;17.60;66.30;;;;;;4528989;31;20281;-67
2023/01/15 06:14:47;;;;;;;2.67;0.52;;;17.70;66.30;;;;;;4515726;31;20112;-66
2023/01/15 06:17:13;;;;;;;1.25;0.52;;;17.60;66.20;;;;;;4528698;31;20200;-66
2023/01/15 06:19:40;;;;;;;1.80;0.77;;;17.60;66.20;;;;;;4515867;31;20150;-66
2023/01/15 06:22:06;;;;;;;2.17;0.57;;;17.60;66.20;;;;;;4528546;31;20617;-67
2023/01/15 06:24:32;;;;;;;1.83;0.63;;;17.60;66.20;;;;;;4528720;31;20181;-67
2023/01/15 06:26:58;;;;;;;2.45;0.55;;;17.60;66.20;;;;;;4528775;31;20127;-66
2023/01/15 06:29:24;;;;;;;2.28;0.77;;;17.60;66.20;;;;;;4528749;31;20136;-67
2023/01/15 06:31:50;;;;;;;1.52;0.47;;;17.60;66.20;;;;;;4530177;31;20130;-66
2023/01/15 06:34:16;;;;;;;2.65;0.80;;;17.60;66.20;;;;;;4527405;31;20108;-66
2023/01/15 06:36:42;;;;;;;2.67;0.70;;;17.60;66.10;;;;;;4528828;31;20232;-67
2023/01/15 06:39:08;;;;;;;2.13;0.68;;;17.60;66.10;;;;;;4527380;31;20132;-67
2023/01/15 06:47:21;;;;;;;1.42;0.60;;;17.60;66.00;;;;;;4527571;31;20120;-67
2023/01/15 06:49:56;;;;;;;2.80;0.80;;;17.60;66.00;;;;;;4529738;31;20128;-67
2023/01/15 06:52:23;;;;;;;1.92;0.70;;;17.60;66.00;;;;;;4514581;31;20212;-66
2023/01/15 06:54:49;;;;;;;2.58;0.70;;;17.60;66.00;;;;;;4529116;31;20201;-66
2023/01/15 06:57:17;;;;;;;1.70;0.80;;;17.60;66.00;;;;;;4515341;31;20099;-66
2023/01/15 06:59:43;;;;;;;1.88;0.70;;;17.60;65.90;;;;;;4528186;31;20260;-66
2023/01/15 07:02:10;;;;;;;1.90;0.70;;;17.60;66.00;;;;;;4529864;31;20152;-66
2023/01/15 07:04:36;;;;;;;2.88;0.60;;;17.60;65.90;;;;;;4514461;31;20124;-67
2023/01/15 07:07:03;;;;;;;2.25;0.60;;;17.60;65.90;;;;;;4532194;31;20127;-67
2023/01/15 07:09:29;;;;;;;2.35;0.77;;;17.60;65.80;;;;;;4530727;31;20128;-66
2023/01/15 07:11:55;;;;;;;1.90;0.90;;;17.60;65.80;;;;;;4532706;31;20130;-67
2023/01/15 07:14:26;;;;;;;2.75;0.80;;;17.60;65.80;;;;;;4531511;31;20079;-66
2023/01/15 07:16:53;;;;;;;2.67;0.70;;;17.60;65.80;;;;;;4531573;31;20473;-67
2023/01/15 07:19:19;;;;;;;2.13;0.60;;;17.60;65.80;;;;;;4518401;31;20144;-66
2023/01/15 07:21:47;;;;;;;2.35;0.80;;;17.60;65.80;;;;;;4531166;31;20194;-67
2023/01/15 07:24:14;;;;;;;1.73;0.70;;;17.60;65.80;;;;;;4532919;31;20257;-66
2023/01/15 07:26:41;;;;;;;3.42;0.68;;;17.60;65.80;;;;;;4531876;31;20232;-67
2023/01/15 07:29:06;;;;;;;2.50;0.80;;;17.60;65.80;;;;;;4531946;31;20140;-66
2023/01/15 07:31:33;;;;;;;3.08;0.75;;;17.60;65.70;;;;;;4532608;31;20087;-66
2023/01/15 07:33:59;;;;;;;1.88;0.50;;;17.60;65.70;;;;;;4531377;31;20184;-67
2023/01/15 07:36:25;;;;;;;1.90;0.70;;;17.60;65.70;;;;;;4531580;31;20120;-67
2023/01/15 07:38:51;;;;;;;2.38;0.77;;;17.60;65.70;;;;;;4531183;31;20193;-67
2023/01/15 07:49:44;;;;;;;3.97;0.90;;;17.60;65.50;;;;;;4531526;31;20205;-66
2023/01/15 07:52:20;;;;;;;2.25;0.88;;;17.60;65.50;;;;;;4529093;31;20132;-66
2023/01/15 07:54:48;;;;;;;2.58;0.70;;;17.50;65.30;;;;;;4530565;31;20128;-67
2023/01/15 07:57:17;;;;;;;2.97;0.98;;;17.50;65.40;;;;;;4517378;31;20080;-66
2023/01/15 07:59:45;;;;;;;3.75;0.85;;;17.50;65.30;;;;;;4516024;31;20229;-67
2023/01/15 08:02:11;;;;;;;2.20;0.90;;;17.50;65.40;;;;;;4527749;31;20439;-67
2023/01/15 08:04:38;;;;;;;4.00;1.08;;;17.50;65.30;;;;;;4515245;31;20136;-67
2023/01/15 08:07:05;;;;;;;3.08;1.02;;;17.50;65.30;;;;;;4531167;31;20279;-67
2023/01/15 08:09:31;;;;;;;3.78;1.02;;;17.50;65.30;;;;;;4529983;31;20584;-67
2023/01/15 08:17:34;;;;;;;10.05;1.15;;;17.50;65.50;;;;;;4527262;31;20124;-66
2023/01/15 08:20:00;;;;;;;6.95;1.00;;;17.60;65.30;;;;;;4516006;31;20256;-67
2023/01/15 08:22:26;;;;;;;7.30;0.90;;;17.60;65.00;;;;;;4528906;31;20170;-66
2023/01/15 08:25:02;;;;;;;5.10;1.35;;;17.80;64.60;;;;;;4529796;31;20136;-67
2023/01/15 08:27:29;;;;;;;2.58;0.80;;;17.90;64.20;;;;;;4518238;31;20184;-66
2023/01/15 08:29:55;;;;;;;2.53;0.80;;;18.10;63.90;;;;;;4516848;31;20123;-66
2023/01/15 08:32:23;;;;;;;2.13;0.65;;;18.20;63.50;;;;;;4531392;31;20186;-66
2023/01/15 08:34:49;;;;;;;5.75;0.90;;;18.40;63.10;;;;;;4529110;31;20128;-66
2023/01/15 08:37:15;;;;;;;2.65;0.70;;;18.50;63.00;;;;;;4531185;31;20105;-66
2023/01/15 08:39:41;;;;;;;4.18;0.95;;;18.60;62.40;;;;;;4529880;31;20136;-66
2023/01/15 08:42:07;;;;;;;1.55;0.65;;;18.70;62.10;;;;;;4516915;31;20135;-66
2023/01/15 08:44:33;;;;;;;2.72;0.65;;;18.90;62.70;;;;;;4530972;31;20127;-65
2023/01/15 08:47:06;;;;;;;2.47;0.90;;;19.00;61.50;;;;;;4516469;31;20132;-66
2023/01/15 08:49:32;;;;;;;3.63;0.90;;;19.10;61.20;;;;;;4531222;31;20511;-69
2023/01/15 08:52:03;;;;;;;2.38;0.88;;;19.20;61.00;;;;;;4529028;31;20481;-67
2023/01/15 08:54:35;;;;;;;3.95;0.93;;;19.30;60.80;;;;;;4517407;31;20511;-66
2023/01/15 08:57:08;;;;;;;4.97;1.17;;;19.30;60.60;;;;;;4517935;31;20135;-66
2023/01/15 08:59:34;;;;;;;2.85;0.80;;;19.30;60.50;;;;;;4529509;31;20146;-66
2023/01/15 09:02:03;;;;;;;2.05;0.80;;;19.40;60.40;;;;;;4516869;31;20168;-66
2023/01/15 09:04:31;;;;;;;4.90;0.95;;;19.40;60.40;;;;;;4515386;31;20582;-66
2023/01/15 09:06:57;;;;;;;2.85;0.65;;;19.40;60.30;;;;;;4531477;31;20154;-66
2023/01/15 09:09:24;;;;;;;4.05;0.95;;;19.40;60.30;;;;;;4530195;31;20508;-66
2023/01/15 09:11:49;;;;;;;4.30;1.00;;;19.40;60.30;;;;;;4530873;31;20603;-66
2023/01/15 09:14:15;;;;;;;4.07;1.25;;;19.40;60.20;;;;;;4530434;31;20112;-65
2023/01/15 09:16:41;;;;;;;3.05;1.00;;;19.40;60.20;;;;;;4529701;31;20151;-66
2023/01/15 09:19:09;;;;;;;5.30;1.08;;;19.40;60.10;;;;;;4529020;31;20204;-66
2023/01/15 09:21:35;;;;;;;4.13;1.10;;;19.50;61.00;;;;;;4528340;31;20147;-66
2023/01/15 09:24:01;;;;;;;3.28;0.90;;;19.40;60.10;;;;;;4530506;31;20274;-66
2023/01/15 09:26:30;;;;;;;4.80;1.08;;;19.50;60.00;;;;;;4514744;31;20134;-67
2023/01/15 09:28:56;;;;;;;4.65;1.10;;;19.50;60.00;;;;;;4515040;31;20135;-67
2023/01/15 09:31:23;;;;;;;4.10;1.00;;;19.50;60.00;;;;;;4527752;31;20157;-67
2023/01/15 09:33:50;;;;;;;4.65;1.02;;;19.50;60.00;;;;;;4514877;31;20124;-67
2023/01/15 09:36:24;;;;;;;3.25;1.00;;;19.50;60.00;;;;;;4515535;31;20138;-67
2023/01/15 09:38:50;;;;;;;2.58;0.85;;;19.50;60.00;;;;;;4514455;31;20128;-66
2023/01/15 09:44:07;;;;;;;2.60;0.80;;;19.60;59.90;;;;;;4527918;31;20146;-66
2023/01/15 09:46:52;;;;;;;2.85;0.80;;;19.60;59.90;;;;;;4525836;31;20170;-67
2023/01/15 09:49:50;;;;;;;2.10;0.70;;;19.60;60.00;;;;;;4529215;31;20119;-66
2023/01/15 09:52:44;;;;;;;2.72;1.10;;;19.60;59.90;;;;;;4508388;31;20132;-66
2023/01/15 09:55:21;;;;;;;5.03;1.20;;;19.60;60.00;;;;;;4526287;31;20192;-67
2023/01/15 09:57:52;;;;;;;3.60;1.10;;;19.60;59.90;;;;;;4513749;31;20735;-67
2023/01/15 10:00:22;;;;;;;2.65;0.80;;;19.60;59.80;;;;;;4513663;31;20589;-66
2023/01/15 10:03:20;;;;;;;3.08;1.08;;;19.60;59.70;;;;;;4522476;31;20198;-67
2023/01/15 10:06:02;;;;;;;4.25;1.20;;;19.60;59.90;;;;;;4524590;31;20496;-72
2023/01/15 10:08:37;;;;;;;4.33;0.80;;;19.60;59.90;;;;;;4519107;31;20136;-67
2023/01/15 10:12:33;;;;;;;1.77;0.70;;;19.60;60.00;;;;;;4525708;31;20217;-67
2023/01/15 10:14:30;;;;;;;4.13;0.77;;;19.60;59.90;;;;;;4524153;31;20096;-67
2023/01/15 10:16:56;;;;;;;3.60;0.95;;;19.60;59.90;;;;;;4522936;31;20580;-67
2023/01/15 10:19:22;;;;;;;2.10;0.65;;;19.60;59.90;;;;;;4524368;31;20193;-67
2023/01/15 10:22:15;;;;;;;5.07;0.93;;;19.60;59.80;;;;;;4521308;31;20124;-67
2023/01/15 10:24:54;;;;;;;4.05;0.98;;;19.60;59.80;;;;;;4522024;31;20131;-67
2023/01/15 10:27:24;;;;;;;3.97;0.77;;;19.60;59.60;;;;;;4519020;31;20143;-67
2023/01/15 10:30:04;;;;;;;3.92;0.90;;;19.60;59.60;;;;;;4520641;31;20144;-67
2023/01/15 10:32:45;;;;;;;3.58;1.08;;;19.60;59.60;;;;;;4498301;31;20347;-67
2023/01/15 10:35:35;;;;;;;3.65;1.20;;;19.60;59.20;;;;;;4520297;31;20182;-68
2023/01/15 10:38:17;;;;;;;4.43;1.27;;;19.60;59.10;;;;;;4513068;31;20707;-67
2023/01/15 10:41:04;;;;;;;5.00;1.10;;;19.60;58.90;;;;;;4524125;31;20140;-67
2023/01/15 10:44:08;;;;;;;5.03;1.30;;;19.60;58.90;;;;;;4524374;31;20123;-68
2023/01/15 10:46:39;;;;;;;4.57;1.48;;;19.70;59.00;;;;;;4518007;31;20258;-67
2023/01/15 10:49:27;;;;;;;5.03;1.23;;;19.70;59.00;;;;;;4518425;31;20146;-70
2023/01/15 10:52:03;;;;;;;8.25;1.20;;;19.70;59.00;;;;;;4524075;31;20597;-68
2023/01/15 10:54:43;;;;;;;6.75;1.08;;;19.70;58.90;;;;;;4512284;31;20143;-68
2023/01/15 10:57:20;;;;;;;5.95;1.00;;;19.70;58.90;;;;;;4525306;31;20098;-68
2023/01/15 10:59:56;;;;;;;3.22;0.93;;;19.70;58.80;;;;;;4526365;31;20244;-70
2023/01/15 11:02:41;;;;;;;4.03;1.02;;;19.70;58.60;;;;;;4514490;31;20297;-70
2023/01/15 11:05:15;;;;;;;4.47;1.00;;;19.70;58.60;;;;;;4527531;31;20147;-68
2023/01/15 11:07:45;;;;;;;2.97;1.08;;;19.70;58.60;;;;;;4513665;31;20128;-68
2023/01/15 11:10:15;;;;;;;4.60;1.33;;;19.70;58.70;;;;;;4529063;31;20188;-69
2023/01/15 11:21:30;;;;;;;6.18;1.27;;;19.70;58.80;;;;;;4525388;31;20128;-70
2023/01/15 11:23:59;;;;;;;3.85;0.93;;;19.70;58.80;;;;;;4527604;31;20686;-72
2023/01/15 11:26:27;;;;;;;4.30;1.10;;;19.70;58.90;;;;;;4526469;31;20142;-69
2023/01/15 11:28:57;;;;;;;6.38;1.35;;;19.60;58.80;;;;;;4514142;31;20147;-69
2023/01/15 11:31:35;;;;;;;6.85;1.33;;;19.60;58.70;;;;;;4527942;31;20156;-69
2023/01/15 11:34:04;;;;;;;5.72;1.60;;;19.60;58.70;;;;;;4525426;31;20185;-68
2023/01/15 11:36:35;;;;;;;7.60;1.35;;;19.60;58.70;;;;;;4526368;31;20703;-69
2023/01/15 11:39:01;;;;;;;4.68;1.35;;;19.60;58.60;;;;;;4526546;31;20266;-69
2023/01/15 11:52:48;;;;;;;6.68;1.25;;;19.60;58.40;;;;;;4529017;31;20076;-67
2023/01/15 11:55:20;;;;;;;5.75;1.20;;;19.60;58.40;;;;;;4529453;31;20167;-68
2023/01/15 11:57:48;;;;;;;6.60;1.55;;;19.60;58.30;;;;;;4530567;31;20281;-67
2023/01/15 12:00:20;;;;;;;5.82;1.48;;;19.60;58.20;;;;;;4528537;31;20216;-67
2023/01/15 12:02:50;;;;;;;6.70;1.73;;;19.60;58.10;;;;;;4531139;31;20202;-67
2023/01/15 12:05:25;;;;;;;4.65;1.30;;;19.60;58.10;;;;;;4529131;31;20256;-68
2023/01/15 12:07:56;;;;;;;4.38;1.30;;;19.60;58.10;;;;;;4516092;31;20132;-67
2023/01/15 12:13:28;;;;;;;5.68;1.50;;;19.60;58.00;;;;;;4529282;31;20142;-69
2023/01/15 12:16:00;;;;;;;4.97;1.50;;;19.60;58.00;;;;;;4527063;31;20175;-68
2023/01/15 12:18:40;;;;;;;5.68;1.42;;;19.60;58.00;;;;;;4493943;31;20142;-68
2023/01/15 12:21:54;;;;;;;6.13;1.60;;;19.60;57.90;;;;;;4526914;31;20204;-70
2023/01/15 12:24:39;;;;;;;6.22;1.48;;;19.50;58.70;;;;;;4511976;31;20290;-71
2023/01/15 12:27:20;;;;;;;7.03;1.20;;;19.60;57.80;;;;;;4527404;31;20073;-70
2023/01/15 12:29:55;;;;;;;5.75;1.45;;;19.60;57.70;;;;;;4529023;31;20159;-69
2023/01/15 12:32:30;;;;;;;4.30;1.33;;;19.60;57.60;;;;;;4530532;31;20155;-69
2023/01/15 12:35:24;;;;;;;5.05;1.23;;;19.60;57.50;;;;;;4513154;31;20150;-69
2023/01/15 12:38:16;;;;;;;5.15;1.52;;;19.60;57.50;;;;;;4527389;31;20589;-70
2023/01/15 12:40:59;;;;;;;6.07;1.70;;;19.60;57.40;;;;;;4527818;31;20132;-69
2023/01/15 12:46:27;;;;;;;5.18;1.40;;;19.70;57.40;;;;;;4528956;31;20127;-70
2023/01/15 12:49:35;;;;;;;2.70;1.30;;;19.70;57.30;;;;;;4530398;31;20184;-70
2023/01/15 12:52:08;;;;;;;3.00;1.00;;;19.70;57.40;;;;;;4528842;31;20152;-70
2023/01/15 12:54:41;;;;;;;5.10;1.42;;;19.60;58.20;;;;;;4525894;31;20139;-70
2023/01/15 12:57:29;;;;;;;3.83;1.05;;;19.70;57.30;;;;;;4529351;31;20084;-69
2023/01/15 13:00:22;;;;;;;3.63;1.10;;;19.70;57.30;;;;;;4527304;31;20542;-69
2023/01/15 13:03:06;;;;;;;4.30;1.30;;;19.70;57.20;;;;;;4523844;31;20152;-68
2023/01/15 13:05:50;;;;;;;5.43;1.40;;;19.70;57.20;;;;;;4516381;31;20096;-68
2023/01/15 13:08:20;;;;;;;6.05;1.38;;;19.70;57.30;;;;;;4523747;31;20212;-69
2023/01/15 13:10:50;;;;;;;5.57;1.10;;;19.70;57.20;;;;;;4515454;31;20136;-67
2023/01/15 13:13:23;;;;;;;2.53;1.08;;;19.70;57.30;;;;;;4526954;31;20164;-67
2023/01/15 13:16:17;;;;;;;5.47;1.50;;;19.70;57.30;;;;;;4527388;31;20151;-68
2023/01/15 13:18:46;;;;;;;4.03;1.10;;;19.70;57.30;;;;;;4494052;31;20134;-67
2023/01/15 13:21:19;;;;;;;3.85;1.10;;;19.80;57.30;;;;;;4527509;31;20135;-68
2023/01/15 13:24:03;;;;;;;2.88;1.17;;;19.80;57.40;;;;;;4529672;31;20195;-68
2023/01/15 13:26:51;;;;;;;4.28;1.20;;;19.80;57.40;;;;;;4525840;31;20140;-68
2023/01/15 13:29:34;;;;;;;4.50;1.27;;;19.70;57.20;;;;;;4527406;31;20219;-68
2023/01/15 13:32:34;;;;;;;5.22;1.27;;;19.70;57.20;;;;;;4527488;31;20248;-68
2023/01/15 13:35:21;;;;;;;3.88;1.08;;;19.70;57.20;;;;;;4525276;31;20124;-68
2023/01/15 13:37:53;;;;;;;3.17;1.10;;;19.70;57.30;;;;;;4528113;31;20151;-68
2023/01/15 13:40:37;;;;;;;5.38;1.15;;;19.70;57.30;;;;;;4529065;31;20201;-68
2023/01/15 13:43:06;;;;;;;3.58;1.10;;;19.70;57.30;;;;;;4524457;31;20567;-68
2023/01/15 13:45:47;;;;;;;5.00;1.23;;;19.80;57.40;;;;;;4528900;31;20167;-69
2023/01/15 13:48:30;;;;;;;3.60;1.20;;;19.80;57.50;;;;;;4527972;31;20258;-67
2023/01/15 13:50:58;;;;;;;4.40;1.15;;;19.80;57.50;;;;;;4527389;31;20146;-68
2023/01/15 13:53:42;;;;;;;4.85;1.48;;;19.80;57.50;;;;;;4528961;31;20128;-67
2023/01/15 13:56:13;;;;;;;3.05;1.10;;;19.80;57.50;;;;;;4527880;31;20139;-66
2023/01/15 13:58:53;;;;;;;3.10;0.90;;;19.80;57.40;;;;;;4525722;31;20600;-69
2023/01/15 14:01:22;;;;;;;5.40;1.10;;;19.80;57.50;;;;;;4525268;31;20216;-68
2023/01/15 14:03:59;;;;;;;4.05;1.08;;;19.80;57.50;;;;;;4524907;31;20146;-69
2023/01/15 14:06:37;;;;;;;4.13;1.00;;;19.80;57.50;;;;;;4526796;31;20298;-69
2023/01/15 14:09:04;;;;;;;5.40;1.20;;;19.80;57.50;;;;;;4526474;31;20135;-68
2023/01/15 14:11:34;;;;;;;3.78;0.93;;;19.80;57.50;;;;;;4514434;31;20100;-68
2023/01/15 14:14:20;;;;;;;4.78;1.30;;;19.80;57.50;;;;;;4527902;31;20099;-67